Terminal Aerodrome Forecast
Issued by NWS Wilmington, OH

Current Version | Previous Version | Graphics & Text | Print | Product List | Glossary On
Versions: 1 2 3 4 5 6 7 8 9 10 11 12 13 14 15 16 17 18 19
000
FTUS41 KILN 010900 AAA
TAFCMH
TAF AMD
KCMH 010952Z 0110/0206 03003KT P6SM SCT008 OVC013
      TEMPO 0110/0113 5SM BR OVC008
     FM011400 06003KT P6SM BKN025
     FM011700 07005KT P6SM BKN035
     FM012300 08003KT P6SM SKC=

USA.gov is the U.S. government's official web portal to all federal, state and local government web resources and services.